createdAt,value
2018-02-19T00:01:35.200Z,3.62
2018-02-19T00:04:03.534Z,3.57
2018-02-19T00:06:31.860Z,3.57
2018-02-19T00:09:00.695Z,3.76
2018-02-19T00:11:29.038Z,3.82
2018-02-19T00:13:57.353Z,3.79
2018-02-19T00:16:25.732Z,3.78
2018-02-19T00:18:54.035Z,3.55
2018-02-19T00:21:22.385Z,3.58
2018-02-19T00:23:50.756Z,3.69
2018-02-19T00:28:53.877Z,3.49
2018-02-19T00:31:22.180Z,3.58
2018-02-19T00:33:50.485Z,3.63
2018-02-19T00:36:18.921Z,3.69
2018-02-19T00:38:47.254Z,3.52
2018-02-19T00:41:16.369Z,3.48
2018-02-19T00:43:44.710Z,3.62
2018-02-19T00:46:13.267Z,3.66
2018-02-19T00:48:41.609Z,3.60
2018-02-19T00:51:10.413Z,3.58
2018-02-19T00:53:38.732Z,3.51
2018-02-19T00:56:07.104Z,3.54
2018-02-19T00:58:36.230Z,3.51
2018-02-19T01:01:04.564Z,3.48
2018-02-19T01:03:32.897Z,3.55
2018-02-19T01:06:01.238Z,3.61
2018-02-19T01:08:30.336Z,3.63
2018-02-19T01:10:59.436Z,3.66
2018-02-19T01:13:28.939Z,3.50
2018-02-19T01:15:58.005Z,3.19
2018-02-19T01:18:26.354Z,3.23
2018-02-19T01:20:54.673Z,3.20
2018-02-19T01:23:23.008Z,3.07
2018-02-19T01:25:51.333Z,3.18
2018-02-19T01:28:20.468Z,3.24
2018-02-19T01:30:48.789Z,3.13
2018-02-19T01:33:17.210Z,3.18
2018-02-19T01:35:45.681Z,3.42
2018-02-19T01:38:14.761Z,3.40
2018-02-19T01:40:43.848Z,3.25
2018-02-19T01:43:12.206Z,3.20
2018-02-19T01:45:40.562Z,3.03
2018-02-19T01:48:08.865Z,3.05
2018-02-19T01:50:37.217Z,3.00
2018-02-19T01:53:05.519Z,3.12
2018-02-19T01:55:33.819Z,3.05
2018-02-19T01:58:02.256Z,3.00
2018-02-19T02:00:30.549Z,2.91
2018-02-19T02:02:58.920Z,2.91
2018-02-19T02:05:27.262Z,2.88
2018-02-19T02:07:55.567Z,3.08
2018-02-19T02:10:23.959Z,3.00
2018-02-19T02:12:52.298Z,3.04
2018-02-19T02:15:21.357Z,2.78
2018-02-19T02:17:49.671Z,2.67
2018-02-19T02:20:19.111Z,2.80
2018-02-19T02:22:47.496Z,2.76
2018-02-19T02:25:15.820Z,3.10
2018-02-19T02:27:44.946Z,3.06
2018-02-19T02:30:13.287Z,3.14
2018-02-19T02:32:42.389Z,3.33
2018-02-19T02:35:11.540Z,3.41
2018-02-19T02:37:39.891Z,3.20
2018-02-19T02:40:08.220Z,3.08
2018-02-19T02:42:36.741Z,2.89
2018-02-19T02:45:05.846Z,2.96
2018-02-19T02:47:34.158Z,2.79
2018-02-19T02:50:02.497Z,2.86
2018-02-19T02:52:30.822Z,2.89
2018-02-19T02:54:59.152Z,2.89
2018-02-19T02:57:28.281Z,3.00
2018-02-19T02:59:56.578Z,3.01
2018-02-19T03:02:24.874Z,2.88
2018-02-19T03:04:53.402Z,2.95
2018-02-19T03:07:21.730Z,2.92
2018-02-19T03:09:50.097Z,2.72
2018-02-19T03:12:18.469Z,2.74
2018-02-19T03:14:46.801Z,2.84
2018-02-19T03:17:15.872Z,2.84
2018-02-19T03:19:44.228Z,2.81
2018-02-19T03:22:12.586Z,2.94
2018-02-19T03:24:40.901Z,2.78
2018-02-19T03:27:09.442Z,2.92
2018-02-19T03:29:37.766Z,2.91
2018-02-19T03:32:06.114Z,2.97
2018-02-19T03:34:34.478Z,3.05
2018-02-19T03:37:02.803Z,3.06
2018-02-19T03:39:31.132Z,2.93
2018-02-19T03:41:59.482Z,2.90
2018-02-19T03:44:28.602Z,2.87
2018-02-19T03:46:56.937Z,2.93
2018-02-19T03:49:25.953Z,3.08
2018-02-19T03:51:55.084Z,3.06
2018-02-19T03:54:23.400Z,3.14
2018-02-19T03:56:51.776Z,3.26
2018-02-19T03:59:20.078Z,3.25
2018-02-19T04:01:49.217Z,3.28
2018-02-19T04:04:17.572Z,3.40
2018-02-19T04:06:45.880Z,3.49
2018-02-19T04:09:14.204Z,3.49
2018-02-19T04:11:42.929Z,3.57
2018-02-19T04:14:11.238Z,3.49
2018-02-19T04:16:39.733Z,3.59
2018-02-19T04:19:08.120Z,3.61
2018-02-19T04:21:36.449Z,3.61
2018-02-19T04:24:04.797Z,3.67
2018-02-19T04:26:33.154Z,3.71
2018-02-19T04:29:01.532Z,3.65
2018-02-19T04:31:29.917Z,3.65
2018-02-19T04:33:58.449Z,3.77
2018-02-19T04:36:26.801Z,3.69
2018-02-19T04:38:55.252Z,3.52
2018-02-19T04:41:23.652Z,3.61
2018-02-19T04:43:52.831Z,3.77
2018-02-19T04:46:39.876Z,3.79
2018-02-19T04:49:09.044Z,3.44
2018-02-19T04:51:37.379Z,3.66
2018-02-19T04:54:06.315Z,3.76
2018-02-19T04:56:34.694Z,3.64
2018-02-19T04:59:03.076Z,3.68
2018-02-19T05:01:31.525Z,3.73
2018-02-19T05:03:59.848Z,3.83
2018-02-19T05:06:29.005Z,3.83
2018-02-19T05:08:57.410Z,3.85
2018-02-19T05:11:25.749Z,3.75
2018-02-19T05:13:54.115Z,3.70
2018-02-19T05:16:23.163Z,3.70
2018-02-19T05:18:51.523Z,3.74
2018-02-19T05:21:19.918Z,3.75
2018-02-19T05:23:48.403Z,3.68
2018-02-19T05:26:16.823Z,3.60
2018-02-19T05:28:45.128Z,3.65
2018-02-19T05:31:13.457Z,3.53
2018-02-19T05:33:41.923Z,3.60
2018-02-19T05:36:11.155Z,3.77
2018-02-19T05:38:39.626Z,3.82
2018-02-19T05:41:08.688Z,3.77
2018-02-19T05:43:37.076Z,3.78
2018-02-19T05:46:05.558Z,3.56
2018-02-19T05:48:33.985Z,3.64
2018-02-19T05:51:02.333Z,3.69
2018-02-19T05:53:30.736Z,3.65
2018-02-19T05:55:59.066Z,3.32
2018-02-19T05:58:27.425Z,3.59
2018-02-19T06:00:56.038Z,3.48
2018-02-19T06:03:24.434Z,3.54
2018-02-19T06:05:53.081Z,3.61
2018-02-19T06:08:21.484Z,3.58
2018-02-19T06:10:49.829Z,3.35
2018-02-19T06:13:18.253Z,3.50
2018-02-19T06:15:47.448Z,3.48
2018-02-19T06:18:15.928Z,3.26
2018-02-19T06:20:44.389Z,3.15
2018-02-19T06:23:13.479Z,3.36
2018-02-19T06:25:41.993Z,3.52
2018-02-19T06:28:10.474Z,3.39
2018-02-19T06:30:39.727Z,3.39
2018-02-19T06:33:08.124Z,3.32
2018-02-19T06:35:36.470Z,3.34
2018-02-19T06:38:04.829Z,3.18
2018-02-19T06:40:33.911Z,3.36
2018-02-19T06:43:02.270Z,3.24
2018-02-19T06:45:30.830Z,3.31
2018-02-19T06:47:59.150Z,3.41
2018-02-19T06:50:28.226Z,3.41
2018-02-19T06:52:57.346Z,3.45
2018-02-19T06:55:25.682Z,3.43
2018-02-19T06:57:53.989Z,3.49
2018-02-19T07:00:22.336Z,3.52
2018-02-19T07:02:50.656Z,3.46
2018-02-19T07:05:19.029Z,3.56
2018-02-19T07:07:47.573Z,3.62
2018-02-19T07:10:15.896Z,3.73
2018-02-19T07:12:44.208Z,3.79
2018-02-19T07:15:12.555Z,4.04
2018-02-19T07:17:40.889Z,3.88
2018-02-19T07:20:09.244Z,3.78
2018-02-19T07:22:37.608Z,3.89
2018-02-19T07:25:06.016Z,4.10
2018-02-19T07:27:35.061Z,4.01
2018-02-19T07:30:03.607Z,4.01
2018-02-19T07:32:31.937Z,4.03
2018-02-19T07:35:00.255Z,3.98
2018-02-19T07:37:28.609Z,4.07
2018-02-19T07:39:56.918Z,4.02
2018-02-19T07:42:25.245Z,4.14
2018-02-19T07:44:53.606Z,4.15
2018-02-19T07:47:22.015Z,4.20
2018-02-19T07:49:50.348Z,4.17
2018-02-19T07:52:19.153Z,4.03
2018-02-19T07:54:47.486Z,4.09
2018-02-19T07:57:15.872Z,4.14
2018-02-19T07:59:44.201Z,4.18
2018-02-19T08:02:12.528Z,4.00
2018-02-19T08:04:40.855Z,4.05
2018-02-19T08:07:09.198Z,4.01
2018-02-19T08:09:37.504Z,3.86
2018-02-19T08:12:05.803Z,4.01
2018-02-19T08:14:34.481Z,4.16
2018-02-19T08:17:03.561Z,4.24
2018-02-19T08:19:31.893Z,4.32
2018-02-19T08:22:00.225Z,4.20
2018-02-19T08:24:28.549Z,4.06
2018-02-19T08:26:56.878Z,4.05
2018-02-19T08:29:25.228Z,4.17
2018-02-19T08:31:53.563Z,4.33
2018-02-19T08:34:22.622Z,4.34
2018-02-19T08:36:51.422Z,4.38
2018-02-19T08:39:19.771Z,4.37
2018-02-19T08:41:48.884Z,4.36
2018-02-19T08:44:17.222Z,4.42
2018-02-19T08:46:45.533Z,4.56
2018-02-19T08:49:13.838Z,4.74
2018-02-19T08:51:42.163Z,4.97
2018-02-19T08:54:10.643Z,5.00
2018-02-19T08:56:39.134Z,4.90
2018-02-19T08:59:07.822Z,4.81
2018-02-19T09:01:36.933Z,4.96
2018-02-19T09:04:05.264Z,5.17
2018-02-19T09:06:33.657Z,5.21
2018-02-19T09:09:01.985Z,5.12
2018-02-19T09:11:30.344Z,5.09
2018-02-19T09:13:58.687Z,5.35
2018-02-19T09:16:26.999Z,5.52
2018-02-19T09:18:55.333Z,5.87
2018-02-19T09:21:24.107Z,6.08
2018-02-19T09:23:52.443Z,6.31
2018-02-19T09:26:21.551Z,6.41
2018-02-19T09:28:49.885Z,6.45
2018-02-19T09:31:18.214Z,6.42
2018-02-19T09:33:46.538Z,7.04
2018-02-19T09:36:14.894Z,7.90
2018-02-19T09:38:43.256Z,8.46
2018-02-19T09:41:11.607Z,8.52
2018-02-19T09:43:40.438Z,8.78
2018-02-19T09:46:08.787Z,8.91
2018-02-19T09:48:37.119Z,8.54
2018-02-19T09:51:05.478Z,8.43
2018-02-19T09:53:33.829Z,8.44
2018-02-19T09:56:02.932Z,8.18
2018-02-19T09:58:31.337Z,8.38
2018-02-19T10:00:59.705Z,8.44
2018-02-19T10:03:28.816Z,8.71
2018-02-19T10:05:58.528Z,8.84
2018-02-19T10:08:27.704Z,8.78
2018-02-19T10:10:56.168Z,8.76
2018-02-19T10:13:24.496Z,9.15
2018-02-19T10:15:52.835Z,9.11
2018-02-19T10:18:21.276Z,8.95
2018-02-19T10:20:49.617Z,8.74
2018-02-19T10:23:18.724Z,9.44
2018-02-19T10:25:47.040Z,10.06
2018-02-19T10:28:15.987Z,9.64
2018-02-19T10:30:45.089Z,10.77
2018-02-19T10:33:13.509Z,11.57
2018-02-19T10:35:41.874Z,11.40
2018-02-19T10:38:10.203Z,11.60
2018-02-19T10:40:38.524Z,11.86
2018-02-19T10:43:06.858Z,11.85
2018-02-19T10:45:35.155Z,12.16
2018-02-19T10:48:04.276Z,12.03
2018-02-19T10:50:33.668Z,12.36
2018-02-19T10:53:02.017Z,12.89
2018-02-19T10:55:30.356Z,13.53
2018-02-19T10:57:58.736Z,12.93
2018-02-19T11:00:32.399Z,12.28
2018-02-19T11:03:00.774Z,12.53
2018-02-19T11:05:29.882Z,13.48
2018-02-19T11:07:58.190Z,15.01
2018-02-19T11:10:27.052Z,16.37
2018-02-19T11:12:56.147Z,16.99
2018-02-19T11:15:25.241Z,17.40
2018-02-19T11:17:54.393Z,17.11
2018-02-19T11:20:22.723Z,15.84
2018-02-19T11:22:51.042Z,14.80
2018-02-19T11:25:19.403Z,15.01
2018-02-19T11:27:47.737Z,16.87
2018-02-19T11:30:16.842Z,19.26
2018-02-19T11:32:45.732Z,20.78
2018-02-19T11:35:14.084Z,20.79
2018-02-19T11:37:42.413Z,20.60
2018-02-19T11:40:10.758Z,20.25
2018-02-19T11:42:39.134Z,20.98
2018-02-19T11:45:08.241Z,21.64
2018-02-19T11:47:37.376Z,21.96
2018-02-19T11:50:05.716Z,22.10
2018-02-19T11:52:34.034Z,21.39
2018-02-19T11:55:02.665Z,20.67
2018-02-19T11:57:31.059Z,19.50
2018-02-19T12:00:00.137Z,17.84
2018-02-19T12:02:28.481Z,18.19
2018-02-19T12:04:56.793Z,18.49
2018-02-19T12:07:25.387Z,18.36
2018-02-19T12:09:54.549Z,19.68
2018-02-19T12:12:22.946Z,21.72
2018-02-19T12:14:51.237Z,20.87
2018-02-19T12:17:19.876Z,19.87
2018-02-19T12:19:48.206Z,19.09
2018-02-19T12:22:17.288Z,19.57
2018-02-19T12:24:45.672Z,21.88
2018-02-19T12:27:14.018Z,22.38
2018-02-19T12:29:42.327Z,21.88
2018-02-19T12:32:10.722Z,19.86
2018-02-19T12:34:39.049Z,19.88
2018-02-19T12:37:07.397Z,20.89
2018-02-19T12:39:35.811Z,20.96
2018-02-19T12:42:04.151Z,18.60
2018-02-19T12:44:33.254Z,18.65
2018-02-19T12:47:01.688Z,16.22
2018-02-19T12:49:30.035Z,17.01
2018-02-19T12:51:58.388Z,17.94
2018-02-19T12:54:26.748Z,18.69
2018-02-19T12:56:55.058Z,17.31
2018-02-19T12:59:23.379Z,17.78
2018-02-19T13:01:51.814Z,18.39
2018-02-19T13:04:20.146Z,18.37
2018-02-19T13:06:49.323Z,19.07
2018-02-19T13:09:18.554Z,19.70
2018-02-19T13:11:46.893Z,19.10
2018-02-19T13:14:15.214Z,18.53
2018-02-19T13:16:43.547Z,19.01
2018-02-19T13:19:12.122Z,19.32
2018-02-19T13:21:40.453Z,19.01
2018-02-19T13:24:08.982Z,19.00
2018-02-19T13:26:37.322Z,18.05
2018-02-19T13:29:06.438Z,17.34
2018-02-19T13:31:34.806Z,17.09
2018-02-19T13:34:03.952Z,16.88
2018-02-19T13:36:32.286Z,16.73
2018-02-19T13:39:00.641Z,15.33
2018-02-19T13:41:29.052Z,15.35
2018-02-19T13:43:57.402Z,13.90
2018-02-19T13:46:26.759Z,14.00
2018-02-19T13:48:55.152Z,13.31
2018-02-19T13:51:24.250Z,13.33
2018-02-19T13:53:52.626Z,13.20
2018-02-19T13:56:21.016Z,13.65
2018-02-19T13:58:49.298Z,13.57
2018-02-19T14:01:17.731Z,14.23
2018-02-19T14:03:46.227Z,14.44
2018-02-19T14:06:14.534Z,14.59
2018-02-19T14:08:43.157Z,14.93
2018-02-19T14:11:11.503Z,14.79
2018-02-19T14:13:39.915Z,14.54
2018-02-19T14:16:08.374Z,14.73
2018-02-19T14:18:36.715Z,14.43
2018-02-19T14:21:05.040Z,14.26
2018-02-19T14:23:33.389Z,14.63
2018-02-19T14:26:01.738Z,13.80
2018-02-19T14:28:30.057Z,14.37
2018-02-19T14:30:58.729Z,14.54
2018-02-19T14:33:27.064Z,14.32
2018-02-19T14:35:55.409Z,14.28
2018-02-19T14:38:23.827Z,13.34
2018-02-19T14:40:52.164Z,12.61
2018-02-19T14:43:20.489Z,12.64
2018-02-19T14:45:48.825Z,12.58
2018-02-19T14:48:17.205Z,12.00
2018-02-19T14:50:45.538Z,11.78
2018-02-19T14:53:14.398Z,11.47
2018-02-19T14:55:43.502Z,11.48
2018-02-19T14:58:11.850Z,11.68
2018-02-19T15:00:40.213Z,11.77
2018-02-19T15:03:08.605Z,11.24
2018-02-19T15:05:37.689Z,11.05
2018-02-19T15:08:06.906Z,10.94
2018-02-19T15:10:35.240Z,11.05
2018-02-19T15:13:03.591Z,10.68
2018-02-19T15:15:33.232Z,10.21
2018-02-19T15:18:01.725Z,9.86
2018-02-19T15:20:30.057Z,9.89
2018-02-19T15:22:58.435Z,10.28
2018-02-19T15:25:26.741Z,10.25
2018-02-19T15:27:55.038Z,10.28
2018-02-19T15:30:23.366Z,10.13
2018-02-19T15:32:52.457Z,10.23
2018-02-19T15:35:21.531Z,10.23
2018-02-19T15:37:49.984Z,9.59
2018-02-19T15:40:18.316Z,9.81
2018-02-19T15:42:47.417Z,9.92
2018-02-19T15:45:16.617Z,9.86
2018-02-19T15:47:44.949Z,9.62
2018-02-19T15:50:13.304Z,9.70
2018-02-19T15:52:41.655Z,9.94
2018-02-19T15:55:09.990Z,9.97
2018-02-19T15:57:38.387Z,10.02
2018-02-19T16:00:06.824Z,10.04
2018-02-19T16:02:35.251Z,9.84
2018-02-19T16:05:03.548Z,9.89
2018-02-19T16:07:32.671Z,9.66
2018-02-19T16:10:00.994Z,9.54
2018-02-19T16:12:29.304Z,9.47
2018-02-19T16:14:58.420Z,9.40
2018-02-19T16:17:26.741Z,9.42
2018-02-19T16:19:55.051Z,9.47
2018-02-19T16:22:23.662Z,9.27
2018-02-19T16:24:51.984Z,9.05
2018-02-19T16:27:20.308Z,9.04
2018-02-19T16:29:48.693Z,9.01
2018-02-19T16:32:17.026Z,8.72
2018-02-19T16:34:45.360Z,8.94
2018-02-19T16:37:13.706Z,9.01
2018-02-19T16:39:42.031Z,8.91
2018-02-19T16:42:10.366Z,8.85
2018-02-19T16:44:39.761Z,8.86
2018-02-19T16:47:08.075Z,8.81
2018-02-19T16:49:36.394Z,8.95
2018-02-19T16:52:04.749Z,8.83
2018-02-19T16:54:33.096Z,8.97
2018-02-19T16:57:01.426Z,8.97
2018-02-19T16:59:29.796Z,9.00
2018-02-19T17:01:58.136Z,9.06
2018-02-19T17:04:26.547Z,9.03
2018-02-19T17:06:55.289Z,9.02
2018-02-19T17:09:24.462Z,8.82
2018-02-19T17:11:52.820Z,8.73
2018-02-19T17:14:21.197Z,8.61
2018-02-19T17:16:49.530Z,8.29
2018-02-19T17:19:17.854Z,8.26
2018-02-19T17:21:46.299Z,8.21
2018-02-19T17:24:14.623Z,8.03
2018-02-19T17:26:42.928Z,8.01
2018-02-19T17:29:12.480Z,7.92
2018-02-19T17:31:40.785Z,7.94
2018-02-19T17:34:09.920Z,7.86
2018-02-19T17:36:39.507Z,7.94
2018-02-19T17:39:08.053Z,7.96
2018-02-19T17:41:36.398Z,8.02
2018-02-19T17:44:04.734Z,7.92
2018-02-19T17:46:33.038Z,7.60
2018-02-19T17:49:01.434Z,7.58
2018-02-19T17:51:30.110Z,7.59
2018-02-19T17:53:58.444Z,7.75
2018-02-19T17:56:26.806Z,7.80
2018-02-19T17:58:55.203Z,7.98
2018-02-19T18:01:23.584Z,8.01
2018-02-19T18:03:52.016Z,7.92
2018-02-19T18:06:20.410Z,7.89
2018-02-19T18:08:48.754Z,7.78
2018-02-19T18:11:17.147Z,7.84
2018-02-19T18:13:45.697Z,7.72
2018-02-19T18:16:14.085Z,7.45
2018-02-19T18:18:42.463Z,7.40
2018-02-19T18:21:10.859Z,7.39
2018-02-19T18:23:39.989Z,7.36
2018-02-19T18:26:08.341Z,7.37
2018-02-19T18:28:36.753Z,7.38
2018-02-19T18:31:05.338Z,7.33
2018-02-19T18:33:33.645Z,7.26
2018-02-19T18:36:02.091Z,7.25
2018-02-19T18:38:30.507Z,7.29
2018-02-19T18:40:58.815Z,7.13
2018-02-19T18:43:27.218Z,7.32
2018-02-19T18:45:56.319Z,7.55
2018-02-19T18:48:24.657Z,7.48
2018-02-19T18:50:53.015Z,7.52
2018-02-19T18:53:21.361Z,7.41
2018-02-19T18:55:49.701Z,7.26
2018-02-19T18:58:18.434Z,7.16
2018-02-19T19:00:51.199Z,7.09
2018-02-19T19:03:20.501Z,6.82
2018-02-19T19:05:49.698Z,6.87
2018-02-19T19:08:35.682Z,7.00
2018-02-19T19:11:07.492Z,6.86
2018-02-19T19:13:36.888Z,6.77
2018-02-19T19:16:06.706Z,6.83
2018-02-19T19:18:35.816Z,7.07
2018-02-19T19:21:04.265Z,7.02
2018-02-19T19:23:32.644Z,6.99
2018-02-19T19:26:01.009Z,7.00
2018-02-19T19:28:29.450Z,6.90
2018-02-19T19:30:57.816Z,6.86
2018-02-19T19:33:26.186Z,7.00
2018-02-19T19:35:54.898Z,7.02
2018-02-19T19:38:24.010Z,6.92
2018-02-19T19:40:53.189Z,6.71
2018-02-19T19:43:22.350Z,6.35
2018-02-19T19:45:50.695Z,6.57
2018-02-19T19:48:19.053Z,6.68
2018-02-19T19:50:48.195Z,6.55
2018-02-19T19:53:16.540Z,6.50
2018-02-19T19:55:44.882Z,6.62
2018-02-19T19:58:13.387Z,6.61
2018-02-19T20:00:42.554Z,6.58
2018-02-19T20:03:10.871Z,6.53
2018-02-19T20:05:40.005Z,6.37
2018-02-19T20:08:08.359Z,6.35
2018-02-19T20:10:36.778Z,6.27
2018-02-19T20:13:05.366Z,6.40
2018-02-19T20:15:33.747Z,6.20
2018-02-19T20:18:02.114Z,6.40
2018-02-19T20:20:30.572Z,6.34
2018-02-19T20:22:58.878Z,6.26
2018-02-19T20:25:27.205Z,6.22
2018-02-19T20:27:55.856Z,6.09
2018-02-19T20:30:24.153Z,6.13
2018-02-19T20:32:52.585Z,6.26
2018-02-19T20:35:20.961Z,6.25
2018-02-19T20:37:49.328Z,6.18
2018-02-19T20:40:17.706Z,6.21
2018-02-19T20:42:46.456Z,6.04
2018-02-19T20:45:14.809Z,5.97
2018-02-19T20:47:43.153Z,6.05
2018-02-19T20:50:11.559Z,5.89
2018-02-19T20:52:40.286Z,5.87
2018-02-19T20:55:09.753Z,5.74
2018-02-19T20:57:38.020Z,5.59
2018-02-19T21:00:06.406Z,5.64
2018-02-19T21:02:34.736Z,5.75
2018-02-19T21:05:04.011Z,5.77
2018-02-19T21:07:32.342Z,5.63
2018-02-19T21:10:01.549Z,5.62
2018-02-19T21:12:29.916Z,5.58
2018-02-19T21:14:59.735Z,5.70
2018-02-19T21:17:28.054Z,5.61
2018-02-19T21:19:56.428Z,5.76
2018-02-19T21:22:24.770Z,5.61
2018-02-19T21:24:53.272Z,5.59
2018-02-19T21:27:22.138Z,5.56
2018-02-19T21:29:50.439Z,5.59
2018-02-19T21:32:18.823Z,5.66
2018-02-19T21:34:47.199Z,5.77
2018-02-19T21:37:15.530Z,5.72
2018-02-19T21:39:44.727Z,5.83
2018-02-19T21:42:13.902Z,5.87
2018-02-19T21:44:42.218Z,5.57
2018-02-19T21:47:11.410Z,5.60
2018-02-19T21:49:40.625Z,5.46
2018-02-19T21:52:09.088Z,5.41
2018-02-19T21:54:38.190Z,5.53
2018-02-19T21:57:06.544Z,5.46
2018-02-19T21:59:34.845Z,5.45
2018-02-19T22:02:03.945Z,5.44
2018-02-19T22:04:32.318Z,5.24
2018-02-19T22:07:01.407Z,5.29
2018-02-19T22:09:30.531Z,5.25
2018-02-19T22:11:59.301Z,5.14
2018-02-19T22:14:28.401Z,5.13
2018-02-19T22:16:56.745Z,4.83
2018-02-19T22:19:25.085Z,5.00
2018-02-19T22:21:53.449Z,4.93
2018-02-19T22:24:21.822Z,4.69
2018-02-19T22:26:50.179Z,4.72
2018-02-19T22:29:18.538Z,4.71
2018-02-19T22:31:46.887Z,4.50
2018-02-19T22:34:15.299Z,4.50
2018-02-19T22:36:43.614Z,4.48
2018-02-19T22:39:12.705Z,4.63
2018-02-19T22:41:41.835Z,4.76
2018-02-19T22:44:10.192Z,4.78
2018-02-19T22:46:38.556Z,4.69
2018-02-19T22:49:07.694Z,4.63
2018-02-19T22:51:36.039Z,4.67
2018-02-19T22:54:04.352Z,4.73
2018-02-19T22:56:33.049Z,4.68
2018-02-19T22:59:01.351Z,4.64
2018-02-19T23:01:29.674Z,4.37
2018-02-19T23:03:58.012Z,4.62
2018-02-19T23:06:26.309Z,4.51
2018-02-19T23:08:55.409Z,4.63
2018-02-19T23:11:23.790Z,4.67
2018-02-19T23:13:52.130Z,4.64
2018-02-19T23:16:20.493Z,4.55
2018-02-19T23:18:48.885Z,4.57
2018-02-19T23:21:17.190Z,4.56
2018-02-19T23:23:45.579Z,4.56
2018-02-19T23:26:14.686Z,4.60
2018-02-19T23:28:43.796Z,4.66
2018-02-19T23:31:12.120Z,4.55
2018-02-19T23:33:40.504Z,4.56
2018-02-19T23:36:09.056Z,4.63
2018-02-19T23:38:37.360Z,4.37
2018-02-19T23:41:05.783Z,4.20
2018-02-19T23:43:34.396Z,4.08
2018-02-19T23:46:02.722Z,4.17
2018-02-19T23:48:31.071Z,4.20
2018-02-19T23:50:59.372Z,4.25
2018-02-19T23:53:27.659Z,4.22
2018-02-19T23:55:56.772Z,4.39
2018-02-19T23:58:25.875Z,4.31
